Rockland, ME (04841)

3:02 AM EDT on August 17, 2017 (GMT -0400)
Upper Park Street | | Change Station
Active Advisory: High Surf Advisory Active Notice: High Surf Advisory

Elev 79 ft 44.10 °N, 69.13 °W | Updated 4 seconds ago

Clear
Clear
56.2 °F
Feels Like 56.2 °F
N
4.9
Wind Variable Wind from NW
Gusts 7.0 mph

Today
High -- | Low -- °F
--% Chance of Precip.
Yesterday
High -- | Low -- °F
Precip. -- in
Pressure 29.97 in
Visibility 10.0 miles
Clouds Clear
Dew Point 46 °F
Humidity 69%
Rainfall 0.00 in
Snow Depth Not available.
5:42 AM 7:37 PM
Waning Crescent, 25% visible
METAR KRKD 170656Z AUTO 29004KT 10SM CLR 10/07 A2997 RMK AO2 SLP149 T01000072
Pressure 29.97 in
Visibility 10.0 miles
Clouds Clear
Dew Point 46 °F
Humidity 69%
Rainfall 0.00 in
Snow Depth Not available.
5:42 AM 7:37 PM
Waning Crescent, 25% visible
METAR KRKD 170656Z AUTO 29004KT 10SM CLR 10/07 A2997 RMK AO2 SLP149 T01000072

Get Your Daily Forecast Email!

Thanks for signing up!

Be on the lookout for a verification email in your inbox.

You'll start receiving severe weather alerts in your inbox..

×

10-Day Weather Forecast

Almanac

Astronomy

Aug. 17, 2017 Rise Set
Actual Time
Civil Twilight
Nautical Twilight
Astronomical Twilight
Moon
Length of Visible Light
Length of Day
Tomorrow will be .
, % of the Moon is Illuminated

Today's Extremes

State Highs State Lows

Community

WunderPhotos

Category 6

Welcome to Category 6. This is the collective home for Weather Underground's featured writeups by Dr. Jeff Masters (right), Bob Henson (left), Chris Burt, and other regular contributors.

Nearby

Air Quality

  Air Quality AQ Index Pollutant
Not available.

Snow Depth

Station Depth Elevation

Earthquake Activity

City Distance Mag. Time & Date
Minimum magnitude displayed is 2.5.

Coastal Water Temperatures

Place Temperature

Stations

Nearby Weather Stations

Station Location Temp. Windchill Dew Point Humidity Wind Precip. Elev Updated Type
                   

Watches & Warnings

High Surf Advisory
Issued: 9:36 PM EDT Aug. 16, 2017 – National Weather Service

... High surf advisory in effect from 2 am to 8 PM EDT Thursday...

The National Weather Service in gray has issued a high surf
advisory... which is in effect from 2 am to 8 PM EDT Thursday.

* Location... ocean beaches of midcoast Maine and outlying
islands.

* Surf height... building to around 5 feet with a long period
swell.

* Timing... from late tonight through Thursday night.

* Impacts... strong rip currents, rough surf, and beach erosion
are likely.

Precautionary/preparedness actions...

A high surf advisory means that high surf will affect beaches in
the advisory area... producing localized beach erosion and
dangerous swimming conditions.